Time;durP1;ratioP1;P1;durP2;ratioP2;P2;SDS_P1;SDS_P2;PMS_P1;PMS_P2;Temp;Humidity;BMP_temperature;BMP_pressure;BME280_temperature;BME280_humidity;BME280_pressure;Samples;Min_cycle;Max_cycle;Signal;HPM_P1;HPM_P2
2023/01/25 00:15:40;;;;;;;16.70;12.90;;;;;;;-1.50;100.00;101443.17;102560;1291;615514;-59
2023/01/25 00:23:15;;;;;;;;;;;;;;;-0.44;100.00;101433.08;103549;1266;60029;-60
2023/01/25 00:25:42;;;;;;;19.10;12.90;;;;;;;-0.30;100.00;101427.29;103518;1265;71389;-59
2023/01/25 00:28:09;;;;;;;18.30;13.10;;;;;;;-0.18;100.00;101425.60;103408;1269;192786;-59
2023/01/25 00:30:36;;;;;;;16.40;12.60;;;;;;;-0.01;100.00;101425.56;103864;1267;71792;-59
2023/01/25 00:33:16;;;;;;;14.80;10.80;;;;;;;0.08;100.00;101425.30;104299;1259;59311;-61
2023/01/25 00:35:44;;;;;;;13.20;10.70;;;;;;;0.11;100.00;101425.05;104329;1255;59621;-60
2023/01/25 00:38:43;;;;;;;16.30;10.80;;;;;;;0.14;100.00;101423.23;104356;1259;70959;-61
2023/01/25 00:41:11;;;;;;;12.90;9.40;;;;;;;0.21;100.00;101414.44;104148;1256;68916;-62
2023/01/25 00:43:38;;;;;;;13.90;11.00;;;;;;;0.31;100.00;101408.19;104234;1259;71908;-61
2023/01/25 00:46:05;;;;;;;13.70;10.50;;;;;;;0.38;100.00;101405.09;104329;1259;59750;-59
2023/01/25 00:48:33;;;;;;;11.70;9.80;;;;;;;0.43;100.00;101403.48;104291;1254;60347;-63
2023/01/25 00:51:00;;;;;;;13.30;9.90;;;;;;;0.46;100.00;101402.88;104346;1259;72226;-60
2023/01/25 00:53:28;;;;;;;12.00;9.10;;;;;;;0.46;100.00;101404.96;104312;1255;68879;-61
2023/01/25 00:55:55;;;;;;;11.90;9.00;;;;;;;0.50;100.00;101401.42;104341;1260;72120;-60
2023/01/25 00:58:22;;;;;;;12.00;10.00;;;;;;;0.58;100.00;101391.99;104315;1259;59605;-60
2023/01/25 01:00:51;;;;;;;12.90;9.00;;;;;;;0.63;100.00;101390.56;104246;1259;60134;-60
2023/01/25 01:03:19;;;;;;;13.00;9.20;;;;;;;0.67;100.00;101386.52;104400;1255;72508;-61
2023/01/25 01:05:47;;;;;;;;;;;;;;;0.71;100.00;101392.66;104340;1259;68852;-60
2023/01/25 01:08:14;;;;;;;13.30;9.30;;;;;;;0.67;100.00;101392.91;104388;1255;72229;-62
2023/01/25 01:10:41;;;;;;;12.20;9.00;;;;;;;0.67;100.00;101387.56;104233;1267;60402;-60
2023/01/25 01:13:08;;;;;;;12.50;9.50;;;;;;;0.72;100.00;101380.77;104385;1254;60682;-61
2023/01/25 01:15:36;;;;;;;;;;;;;;;0.75;100.00;101387.60;104296;1259;72386;-62
2023/01/25 01:18:03;;;;;;;14.10;9.00;;;;;;;0.72;100.00;101389.42;104256;1261;70020;-61
2023/01/25 01:20:30;;;;;;;12.90;9.10;;;;;;;0.73;100.00;101385.45;104339;1260;71697;-61
2023/01/25 01:22:57;;;;;;;11.80;9.60;;;;;;;0.73;100.00;101392.37;104247;1254;61005;-60
2023/01/25 01:25:24;;;;;;;11.80;8.60;;;;;;;0.73;100.00;101394.77;104282;1256;59643;-61
2023/01/25 01:27:51;;;;;;;13.20;9.10;;;;;;;0.74;100.00;101393.27;104259;1259;73187;-60
2023/01/25 01:30:18;;;;;;;13.50;10.20;;;;;;;0.75;100.00;101388.27;104409;1255;70263;-61
2023/01/25 01:32:45;;;;;;;14.40;9.70;;;;;;;0.78;100.00;101388.36;104301;1256;71381;-61
2023/01/25 01:35:12;;;;;;;14.40;9.10;;;;;;;0.79;100.00;101383.04;104245;1256;60431;-62
2023/01/25 01:37:41;;;;;;;13.20;10.10;;;;;;;0.76;100.00;101381.91;104285;1268;60375;-61
2023/01/25 01:40:12;;;;;;;13.40;9.50;;;;;;;0.77;100.00;101382.64;104270;1259;72941;-60
2023/01/25 01:43:01;;;;;;;13.20;10.70;;;;;;;0.84;100.00;101382.97;104548;1255;70370;-61
2023/01/25 01:45:44;;;;;;;11.60;8.70;;;;;;;0.87;100.00;101380.97;104311;1258;72489;-60
2023/01/25 01:48:25;;;;;;;11.70;8.70;;;;;;;0.85;100.00;101375.92;104275;1253;59688;-63
2023/01/25 01:50:54;;;;;;;9.80;7.70;;;;;;;0.84;100.00;101378.15;104359;1254;59788;-62
2023/01/25 01:53:21;;;;;;;11.30;7.80;;;;;;;0.83;100.00;101376.38;104431;1269;72599;-62
2023/01/25 01:55:48;;;;;;;13.30;9.20;;;;;;;0.85;100.00;101374.54;104331;1258;69055;-64
2023/01/25 01:58:15;;;;;;;10.60;8.20;;;;;;;0.91;100.00;101376.58;104405;1253;72235;-63
2023/01/25 02:00:42;;;;;;;12.90;9.50;;;;;;;0.93;100.00;101376.46;104421;1255;59729;-62
2023/01/25 02:03:09;;;;;;;12.20;9.20;;;;;;;0.91;100.00;101379.88;104335;1257;59693;-63
2023/01/25 02:05:45;;;;;;;12.20;8.80;;;;;;;0.90;100.00;101373.80;104345;1266;72204;-62
2023/01/25 02:08:13;;;;;;;10.70;8.30;;;;;;;0.88;100.00;101371.69;104286;1260;69093;-62
2023/01/25 02:10:41;;;;;;;11.50;8.60;;;;;;;0.88;100.00;101369.27;104323;1272;72753;-61
2023/01/25 02:13:09;;;;;;;13.80;9.90;;;;;;;0.92;100.00;101363.15;104346;1257;59632;-61
2023/01/25 02:16:37;;;;;;;12.50;9.00;;;;;;;0.93;100.00;101360.92;106020;1253;60728;-61
2023/01/25 02:19:04;;;;;;;10.30;8.70;;;;;;;0.85;100.00;101365.21;104379;1258;73260;-62
2023/01/25 02:21:37;;;;;;;11.70;8.70;;;;;;;0.85;100.00;101361.42;104218;1254;68731;-61
2023/01/25 02:24:29;;;;;;;11.40;9.50;;;;;;;0.85;100.00;101358.30;104379;1254;72058;-61
2023/01/25 02:26:56;;;;;;;12.70;8.50;;;;;;;0.87;100.00;101356.27;104322;1257;59744;-61
2023/01/25 02:29:23;;;;;;;9.70;8.70;;;;;;;0.91;100.00;101354.30;104291;1268;60065;-60
2023/01/25 02:32:06;;;;;;;11.70;8.90;;;;;;;0.90;100.00;101355.70;104466;1254;72687;-61
2023/01/25 02:34:35;;;;;;;10.90;8.60;;;;;;;0.90;100.00;101350.33;104277;1257;68521;-60
2023/01/25 02:37:02;;;;;;;9.60;7.80;;;;;;;0.91;100.00;101351.04;104177;1265;72577;-61
2023/01/25 02:39:29;;;;;;;8.10;7.30;;;;;;;0.89;100.00;101350.45;104299;1258;59711;-60
2023/01/25 02:41:56;;;;;;;9.70;8.10;;;;;;;0.84;100.00;101347.94;103980;1259;60326;-60
2023/01/25 02:44:24;;;;;;;;;;;;;;;0.85;100.00;101350.19;104378;1258;72421;-60
2023/01/25 02:46:51;;;;;;;10.50;8.40;;;;;;;0.84;100.00;101351.20;104177;1272;68675;-60
2023/01/25 02:49:19;;;;;;;10.10;8.30;;;;;;;0.90;100.00;101352.05;104762;1254;71762;-60
2023/01/25 02:51:50;;;;;;;9.50;8.50;;;;;;;0.90;100.00;101351.88;104349;1257;59620;-60
2023/01/25 02:54:18;;;;;;;10.00;8.50;;;;;;;0.87;100.00;101349.88;104267;1257;59754;-61
2023/01/25 02:56:45;;;;;;;10.70;8.40;;;;;;;0.79;100.00;101349.52;104177;1271;72014;-61
2023/01/25 02:59:12;;;;;;;11.60;8.50;;;;;;;0.73;100.00;101349.21;104374;1256;68901;-60
2023/01/25 03:01:41;;;;;;;10.00;8.20;;;;;;;0.71;100.00;101353.14;104301;1270;72996;-60
2023/01/25 03:04:08;;;;;;;10.10;7.90;;;;;;;0.75;100.00;101353.41;104508;1255;59757;-60
2023/01/25 03:06:36;;;;;;;11.50;8.90;;;;;;;0.78;100.00;101359.00;104399;1258;59743;-62
2023/01/25 03:09:04;;;;;;;10.10;8.60;;;;;;;0.81;100.00;101358.04;104114;1263;72169;-60
2023/01/25 03:11:32;;;;;;;9.70;8.70;;;;;;;0.83;100.00;101355.65;104347;1258;69394;-60
2023/01/25 03:14:00;;;;;;;9.40;8.40;;;;;;;0.85;100.00;101352.42;104470;1261;71773;-60
2023/01/25 03:16:29;;;;;;;10.10;8.40;;;;;;;0.83;100.00;101349.61;104339;1254;61232;-60
2023/01/25 03:18:57;;;;;;;9.30;7.90;;;;;;;0.85;100.00;101352.77;104365;1259;60356;-60
2023/01/25 03:21:25;;;;;;;9.00;7.70;;;;;;;0.89;100.00;101350.29;104174;1277;73193;-60
2023/01/25 03:23:57;;;;;;;10.60;8.30;;;;;;;0.90;100.00;101354.63;104204;1261;68399;-60
2023/01/25 03:26:25;;;;;;;10.70;7.60;;;;;;;0.89;100.00;101353.05;104317;1257;71791;-61
2023/01/25 03:29:12;;;;;;;9.00;8.00;;;;;;;0.89;100.00;101349.77;104375;1257;60440;-60
2023/01/25 03:31:41;;;;;;;10.20;8.30;;;;;;;0.86;100.00;101349.69;104400;1276;60324;-60
2023/01/25 03:34:08;;;;;;;11.00;7.80;;;;;;;0.87;100.00;101350.23;104328;1254;72498;-60
2023/01/25 03:36:38;;;;;;;11.70;8.20;;;;;;;0.93;100.00;101350.91;104399;1255;69341;-60
2023/01/25 03:39:05;;;;;;;9.40;7.60;;;;;;;0.96;100.00;101347.34;104120;1261;71791;-62
2023/01/25 03:41:35;;;;;;;9.20;7.10;;;;;;;0.91;100.00;101346.20;104376;1259;60528;-61
2023/01/25 03:44:02;;;;;;;8.30;6.90;;;;;;;0.86;100.00;101350.91;104419;1266;60434;-61
2023/01/25 03:46:30;;;;;;;8.70;6.20;;;;;;;0.82;100.00;101349.42;104310;1257;71931;-64
2023/01/25 03:48:57;;;;;;;9.50;7.30;;;;;;;0.74;100.00;101351.66;104239;1277;70308;-60
2023/01/25 03:51:24;;;;;;;7.50;6.40;;;;;;;0.74;100.00;101356.31;104317;1256;72835;-61
2023/01/25 03:53:52;;;;;;;10.30;7.90;;;;;;;0.74;100.00;101357.70;104270;1260;60448;-61
2023/01/25 10:38:47;;;;;;;7.20;5.00;;;;;;;-2.29;100.00;101270.60;102244;1302;600850;-58
2023/01/25 10:41:27;;;;;;;12.40;7.20;;;;;;;-1.74;100.00;101262.89;104322;1270;60641;-59
2023/01/25 10:44:30;;;;;;;12.10;9.30;;;;;;;-1.47;100.00;101251.17;104574;1263;59315;-59
2023/01/25 10:46:59;;;;;;;16.40;10.70;;;;;;;-1.27;100.00;101241.49;104395;1254;71365;-61
2023/01/25 10:49:55;;;;;;;15.00;11.50;;;;;;;-1.15;100.00;101240.32;104361;1266;69611;-60
2023/01/25 10:52:29;;;;;;;13.80;10.20;;;;;;;-0.95;100.00;101240.89;104255;1251;237519;-59
2023/01/25 10:55:14;;;;;;;12.80;9.80;;;;;;;-0.87;100.00;101237.52;104409;1251;59401;-59
2023/01/25 10:57:52;;;;;;;17.80;12.90;;;;;;;-0.77;100.00;101232.46;104383;1254;60496;-60
2023/01/25 11:00:26;;;;;;;16.50;11.70;;;;;;;-0.68;100.00;101233.42;104538;1257;72453;-59
2023/01/25 11:02:57;;;;;;;17.70;12.90;;;;;;;-0.60;100.00;101226.41;104390;1260;70070;-60
2023/01/25 11:05:36;;;;;;;19.70;12.30;;;;;;;-0.59;100.00;101227.31;104337;1259;71910;-61
2023/01/25 11:08:24;;;;;;;69.80;42.50;;;;;;;-0.61;100.00;101226.73;104335;1273;59972;-60
2023/01/25 11:10:54;;;;;;;63.30;31.70;;;;;;;-0.58;100.00;101222.33;104403;1257;60607;-60
2023/01/25 11:13:26;;;;;;;72.90;39.80;;;;;;;-0.49;100.00;101218.80;104293;1262;72111;-61
2023/01/25 11:16:00;;;;;;;46.40;29.00;;;;;;;-0.46;100.00;101218.52;104435;1257;68753;-61
2023/01/25 11:18:32;;;;;;;29.80;20.00;;;;;;;-0.45;100.00;101214.61;104535;1258;71756;-58
2023/01/25 11:21:21;;;;;;;26.50;17.00;;;;;;;-0.46;100.00;101211.65;104375;1252;61059;-59
2023/01/25 11:24:08;;;;;;;24.30;17.20;;;;;;;-0.50;100.00;101206.19;104319;1260;60397;-60
2023/01/25 11:26:38;;;;;;;17.00;11.90;;;;;;;-0.47;100.00;101201.79;104449;1251;73170;-60
2023/01/25 11:29:13;;;;;;;15.90;10.60;;;;;;;-0.41;100.00;101201.95;104503;1269;69764;-61
2023/01/25 11:31:53;;;;;;;;;;;;;;;-0.32;100.00;101198.57;104329;1257;72271;-61
2023/01/25 11:34:24;;;;;;;11.90;9.40;;;;;;;-0.38;100.00;101197.22;104369;1264;59772;-60
2023/01/25 11:37:24;;;;;;;28.40;17.30;;;;;;;-0.39;100.00;101198.73;104308;1256;59865;-61
2023/01/25 11:39:52;;;;;;;22.10;15.10;;;;;;;-0.44;100.00;101195.84;104333;1255;72947;-60
2023/01/25 11:42:37;;;;;;;17.40;12.30;;;;;;;-0.36;100.00;101193.98;104292;1267;69150;-61
2023/01/25 11:45:33;;;;;;;17.40;11.30;;;;;;;-0.32;100.00;101188.05;104365;1258;72747;-60
2023/01/25 11:48:34;;;;;;;23.90;16.50;;;;;;;-0.26;100.00;101187.89;104495;1256;60014;-59
2023/01/25 11:51:02;;;;;;;18.90;12.20;;;;;;;-0.28;100.00;101186.44;104215;1251;60241;-59
2023/01/25 11:53:49;;;;;;;16.10;11.70;;;;;;;-0.28;100.00;101181.80;104542;1251;72159;-61
2023/01/25 11:56:27;;;;;;;12.50;9.80;;;;;;;-0.24;100.00;101177.41;104240;1257;69374;-59
2023/01/25 15:12:14;;;;;;;11.20;8.00;;;;;;;-2.52;100.00;101107.53;102161;1292;602196;-63
2023/01/25 15:14:49;;;;;;;15.20;11.10;;;;;;;-1.92;100.00;101108.78;103495;1286;62071;-65
2023/01/25 15:17:46;;;;;;;13.90;11.20;;;;;;;-1.68;100.00;101109.51;103682;1268;60848;-63
2023/01/25 15:20:28;;;;;;;;;;;;;;;-1.51;100.00;101102.98;103501;1270;71439;-66
2023/01/25 15:23:03;;;;;;;17.80;11.60;;;;;;;-1.41;100.00;101100.34;103576;1266;69035;-65
2023/01/25 15:25:33;;;;;;;21.20;13.50;;;;;;;-1.29;100.00;101098.80;103829;1265;178501;-66
2023/01/25 15:28:02;;;;;;;16.30;13.00;;;;;;;-1.19;100.00;101097.70;103820;1265;60788;-67
2023/01/25 15:30:32;;;;;;;18.40;12.60;;;;;;;-1.12;100.00;101096.19;103793;1264;59823;-64
2023/01/25 15:33:05;;;;;;;18.40;13.90;;;;;;;-1.03;100.00;101094.70;103966;1268;71323;-64
2023/01/25 15:35:34;;;;;;;17.90;12.10;;;;;;;-0.93;100.00;101088.79;105603;1266;70200;-59
2023/01/25 15:38:02;;;;;;;20.80;12.10;;;;;;;-0.85;100.00;101087.62;103589;1269;72690;-59
2023/01/25 15:40:30;;;;;;;18.90;13.10;;;;;;;-0.75;100.00;101086.51;103990;1266;61244;-60
2023/01/25 15:42:59;;;;;;;17.50;12.90;;;;;;;-0.64;100.00;101084.02;103640;1278;60202;-60
2023/01/25 15:45:28;;;;;;;17.80;12.30;;;;;;;-0.57;100.00;101082.15;103660;1266;72278;-59
2023/01/25 15:47:57;;;;;;;18.10;12.20;;;;;;;-0.53;100.00;101081.73;103601;1269;69741;-59
2023/01/25 15:50:28;;;;;;;17.40;11.00;;;;;;;-0.52;100.00;101086.23;103717;1269;72901;-60
2023/01/25 15:52:56;;;;;;;15.30;10.90;;;;;;;-0.52;100.00;101082.79;103645;1269;61148;-59
2023/01/25 15:55:25;;;;;;;15.80;11.30;;;;;;;-0.46;100.00;101078.46;103668;1267;59771;-59
2023/01/25 16:08:35;;;;;;;13.40;10.10;;;;;;;-0.62;100.00;101074.95;103907;1269;71415;-60
2023/01/25 16:13:25;;;;;;;16.50;12.30;;;;;;;-0.93;100.00;101075.14;102301;1285;613781;-62
2023/01/25 16:15:54;;;;;;;14.90;10.80;;;;;;;-0.62;100.00;101068.08;103386;1271;59831;-64
2023/01/25 16:18:22;;;;;;;;;;;;;;;-0.59;100.00;101067.98;103762;1270;60465;-60
2023/01/25 16:20:49;;;;;;;14.50;10.90;;;;;;;-0.64;100.00;101064.75;103544;1266;71365;-60
2023/01/25 16:23:16;;;;;;;12.30;9.60;;;;;;;-0.63;100.00;101062.89;103484;1266;70652;-61
2023/01/25 16:25:43;;;;;;;9.50;6.90;;;;;;;-0.63;100.00;101065.80;103565;1271;231357;-60
2023/01/25 16:28:14;;;;;;;15.20;9.20;;;;;;;-0.65;100.00;101069.36;104044;1282;60067;-59
2023/01/25 16:30:43;;;;;;;14.50;10.50;;;;;;;-0.70;100.00;101070.97;103985;1264;60309;-60
2023/01/25 16:33:10;;;;;;;15.60;9.50;;;;;;;-0.68;100.00;101071.19;103887;1264;73547;-60
2023/01/25 16:35:37;;;;;;;12.50;9.60;;;;;;;-0.62;100.00;101069.80;103903;1265;69024;-60
2023/01/25 16:38:04;;;;;;;15.50;10.30;;;;;;;-0.58;100.00;101060.93;103863;1267;72841;-61
2023/01/25 16:40:37;;;;;;;13.40;9.70;;;;;;;-0.51;100.00;101066.10;104106;1257;59686;-60
2023/01/25 16:43:04;;;;;;;14.20;9.30;;;;;;;-0.47;100.00;101061.38;104338;1258;60334;-60
2023/01/25 16:45:31;;;;;;;11.50;8.50;;;;;;;-0.44;100.00;101058.19;104432;1262;74079;-60
2023/01/25 16:48:00;;;;;;;12.10;10.20;;;;;;;-0.40;100.00;101057.61;104448;1259;70940;-60
2023/01/25 16:50:27;;;;;;;14.40;11.00;;;;;;;-0.34;100.00;101063.09;103925;1270;73902;-60
2023/01/25 16:52:58;;;;;;;10.90;9.40;;;;;;;-0.30;100.00;101059.02;103982;1265;59820;-60
2023/01/25 16:55:26;;;;;;;14.10;9.50;;;;;;;-0.28;100.00;101054.79;104083;1265;60282;-59
2023/01/25 16:57:53;;;;;;;9.70;7.90;;;;;;;-0.27;100.00;101059.80;104244;1257;73846;-59
2023/01/25 17:00:24;;;;;;;10.50;8.10;;;;;;;-0.28;100.00;101058.94;104340;1257;69696;-59
2023/01/25 17:02:52;;;;;;;12.20;8.90;;;;;;;-0.23;100.00;101061.64;104496;1259;72806;-59
2023/01/25 17:05:30;;;;;;;13.00;9.70;;;;;;;-0.19;100.00;101058.96;104065;1256;60540;-58
2023/01/25 17:07:58;;;;;;;13.80;10.30;;;;;;;-0.14;100.00;101054.42;104079;1275;59982;-58
2023/01/25 17:10:25;;;;;;;13.60;10.40;;;;;;;-0.16;100.00;101057.31;104075;1260;73992;-58
2023/01/25 17:12:53;;;;;;;13.80;9.90;;;;;;;-0.17;100.00;101056.76;104018;1262;69854;-58
2023/01/25 17:15:20;;;;;;;12.60;9.50;;;;;;;-0.21;100.00;101053.05;104096;1261;72184;-58
2023/01/25 17:17:47;;;;;;;10.10;8.30;;;;;;;-0.23;100.00;101052.30;104059;1259;60474;-58
2023/01/25 17:20:15;;;;;;;13.30;8.80;;;;;;;-0.24;100.00;101058.33;104171;1260;59773;-59
2023/01/25 17:22:48;;;;;;;13.80;10.40;;;;;;;-0.21;100.00;101060.46;104207;1263;73184;-59
2023/01/25 17:25:16;;;;;;;14.20;10.20;;;;;;;-0.21;100.00;101057.55;104027;1260;69413;-59
2023/01/25 17:27:45;;;;;;;13.10;9.20;;;;;;;-0.27;100.00;101057.39;104212;1260;71926;-59
2023/01/25 17:30:12;;;;;;;10.80;8.20;;;;;;;-0.33;100.00;101053.29;104136;1257;59792;-59
2023/01/25 17:32:40;;;;;;;11.70;9.10;;;;;;;-0.33;100.00;101050.34;103985;1259;59781;-59
2023/01/25 17:35:11;;;;;;;12.70;9.30;;;;;;;-0.32;100.00;101052.43;104096;1264;72796;-59
2023/01/25 17:37:39;;;;;;;11.40;9.40;;;;;;;-0.38;100.00;101050.58;104168;1260;69219;-59
2023/01/25 17:40:08;;;;;;;13.50;10.40;;;;;;;-0.39;100.00;101044.36;104050;1259;72349;-57
2023/01/25 17:42:35;;;;;;;17.50;11.60;;;;;;;-0.34;100.00;101041.02;104188;1256;59866;-59
2023/01/25 17:45:03;;;;;;;13.80;10.40;;;;;;;-0.31;100.00;101043.15;104127;1260;60697;-61
2023/01/25 17:47:32;;;;;;;15.70;10.30;;;;;;;-0.31;100.00;101040.21;104434;1259;73726;-61
2023/01/25 17:49:58;;;;;;;12.90;9.40;;;;;;;-0.39;100.00;101039.69;104387;1256;68791;-63
2023/01/25 17:52:25;;;;;;;13.60;10.50;;;;;;;-0.45;100.00;101038.86;104331;1260;71462;-61
2023/01/25 17:54:52;;;;;;;11.40;9.00;;;;;;;-0.43;100.00;101036.50;104344;1268;61935;-63
2023/01/25 17:57:22;;;;;;;13.90;10.10;;;;;;;-0.33;100.00;101035.52;104254;1255;59769;-64
2023/01/25 17:59:49;;;;;;;13.90;10.30;;;;;;;-0.29;100.00;101033.55;104429;1260;72307;-63
2023/01/25 18:02:17;;;;;;;14.50;9.70;;;;;;;-0.26;100.00;101034.33;104295;1265;69440;-62
2023/01/25 18:04:43;;;;;;;14.10;9.80;;;;;;;-0.24;100.00;101034.37;104398;1261;72142;-63
2023/01/25 18:07:10;;;;;;;12.80;9.70;;;;;;;-0.24;100.00;101032.83;104450;1264;60392;-64
2023/01/25 18:09:37;;;;;;;13.90;10.80;;;;;;;-0.25;100.00;101037.45;104556;1256;60295;-64
2023/01/25 18:12:05;;;;;;;12.70;10.20;;;;;;;-0.24;100.00;101036.77;104438;1269;72137;-62
2023/01/25 18:14:33;;;;;;;13.50;10.20;;;;;;;-0.23;100.00;101033.52;104495;1259;68981;-62
2023/01/25 18:17:01;;;;;;;13.40;10.00;;;;;;;-0.23;100.00;101038.17;104387;1254;72297;-69
2023/01/25 18:19:30;;;;;;;12.00;9.70;;;;;;;-0.25;100.00;101037.63;104553;1257;59924;-63
2023/01/25 18:21:57;;;;;;;12.10;9.10;;;;;;;-0.25;100.00;101037.29;104535;1255;60287;-61
2023/01/25 18:24:34;;;;;;;14.50;10.50;;;;;;;-0.26;100.00;101040.54;104661;1256;73435;-63
2023/01/25 18:27:06;;;;;;;10.70;8.70;;;;;;;-0.25;100.00;101046.24;104374;1257;69927;-62
2023/01/25 18:30:03;;;;;;;11.80;9.50;;;;;;;-0.28;100.00;101048.23;104201;1256;71582;-63
2023/01/25 18:32:31;;;;;;;11.90;9.30;;;;;;;-0.32;100.00;101051.41;104567;1253;59743;-66
2023/01/25 18:34:59;;;;;;;12.40;9.20;;;;;;;-0.33;100.00;101051.88;104454;1256;59644;-62
2023/01/25 18:37:32;;;;;;;11.70;7.50;;;;;;;-0.34;100.00;101053.27;104512;1254;73179;-62
2023/01/25 18:39:59;;;;;;;17.90;9.80;;;;;;;-0.32;100.00;101051.39;104425;1253;69572;-64
2023/01/25 18:42:29;;;;;;;10.90;8.80;;;;;;;-0.24;100.00;101049.38;104929;1256;72192;-63
2023/01/25 18:44:56;;;;;;;12.30;9.00;;;;;;;-0.15;100.00;101053.52;104605;1259;59647;-62
2023/01/25 18:47:24;;;;;;;11.00;9.20;;;;;;;-0.11;100.00;101052.23;104557;1256;61862;-62
2023/01/25 18:49:51;;;;;;;12.60;8.70;;;;;;;-0.12;100.00;101047.55;104437;1257;72047;-62
2023/01/25 18:52:19;;;;;;;11.10;8.70;;;;;;;-0.15;100.00;101042.52;104314;1254;69955;-63
2023/01/25 18:54:46;;;;;;;9.30;7.40;;;;;;;-0.19;100.00;101045.17;104691;1259;71787;-63
2023/01/25 18:57:13;;;;;;;10.50;7.90;;;;;;;-0.27;100.00;101047.92;104460;1252;61401;-61
2023/01/25 18:59:41;;;;;;;11.80;9.30;;;;;;;-0.28;100.00;101050.83;104504;1257;60238;-61
2023/01/25 19:02:12;;;;;;;12.70;10.00;;;;;;;-0.24;100.00;101044.88;104644;1256;73002;-61
2023/01/25 19:04:39;;;;;;;9.90;8.40;;;;;;;-0.23;100.00;101039.73;104648;1257;69660;-61
2023/01/25 19:07:06;;;;;;;10.80;8.10;;;;;;;-0.24;100.00;101041.77;104672;1255;72843;-62
2023/01/25 19:09:34;;;;;;;12.90;8.40;;;;;;;-0.26;100.00;101039.84;104380;1258;60062;-61
2023/01/25 19:12:01;;;;;;;10.20;7.90;;;;;;;-0.26;100.00;101038.45;104313;1257;60122;-63
2023/01/25 19:14:29;;;;;;;;;;;;;;;-0.26;100.00;101038.30;104654;1252;72327;-62
2023/01/25 19:16:56;;;;;;;14.50;9.50;;;;;;;-0.25;100.00;101036.58;104385;1256;69335;-62
2023/01/25 19:19:23;;;;;;;13.80;8.50;;;;;;;-0.17;100.00;101040.23;104365;1254;72013;-63
2023/01/25 19:21:50;;;;;;;19.60;12.40;;;;;;;-0.15;100.00;101042.31;104545;1257;59676;-62
2023/01/25 19:24:17;;;;;;;19.40;11.20;;;;;;;-0.13;100.00;101039.80;104486;1253;59661;-62
2023/01/25 19:26:46;;;;;;;15.70;9.50;;;;;;;-0.11;100.00;101037.08;104439;1256;72041;-64
2023/01/25 19:29:14;;;;;;;13.70;9.60;;;;;;;-0.11;100.00;101036.05;104515;1257;68650;-62
2023/01/25 19:31:41;;;;;;;14.70;10.80;;;;;;;-0.09;100.00;101034.90;104589;1262;72823;-63
2023/01/25 19:34:08;;;;;;;14.80;10.10;;;;;;;-0.04;100.00;101029.99;104340;1265;59831;-64
2023/01/25 19:36:44;;;;;;;13.80;9.70;;;;;;;-0.03;100.00;101026.92;104626;1254;61559;-62
2023/01/25 19:39:11;;;;;;;10.80;8.60;;;;;;;-0.07;100.00;101023.21;104517;1255;72296;-61
2023/01/25 19:41:39;;;;;;;10.30;7.70;;;;;;;-0.13;100.00;101024.45;104506;1253;69794;-63
2023/01/25 19:44:06;;;;;;;9.10;7.50;;;;;;;-0.21;100.00;101023.05;104465;1256;72758;-62
2023/01/25 19:46:34;;;;;;;10.30;7.80;;;;;;;-0.34;100.00;101021.36;104567;1253;60679;-63
2023/01/25 19:49:04;;;;;;;11.10;8.60;;;;;;;-0.38;100.00;101025.44;104413;1253;59770;-63
2023/01/25 19:51:34;;;;;;;11.50;8.80;;;;;;;-0.33;100.00;101020.71;104407;1253;72888;-63
2023/01/25 19:54:09;;;;;;;11.60;8.20;;;;;;;-0.31;100.00;101018.70;104653;1256;69413;-64
2023/01/25 19:56:39;;;;;;;11.10;7.30;;;;;;;-0.30;100.00;101019.93;104726;1253;73278;-64
2023/01/25 19:59:07;;;;;;;11.80;7.50;;;;;;;-0.32;100.00;101019.02;104476;1254;59952;-64
2023/01/25 20:01:35;;;;;;;15.40;9.50;;;;;;;-0.37;100.00;101020.63;104460;1253;59733;-63
2023/01/25 20:04:04;;;;;;;12.50;8.90;;;;;;;-0.35;100.00;101013.08;104576;1259;72636;-63
2023/01/25 20:06:33;;;;;;;13.70;9.70;;;;;;;-0.31;100.00;101012.67;104685;1257;69843;-62
2023/01/25 20:09:00;;;;;;;9.40;7.60;;;;;;;-0.28;100.00;101013.79;104432;1253;72436;-62
2023/01/25 20:11:29;;;;;;;10.60;7.90;;;;;;;-0.28;100.00;101011.87;104316;1259;59714;-63
2023/01/25 20:13:57;;;;;;;8.30;6.90;;;;;;;-0.30;100.00;101009.77;104601;1253;60826;-62
2023/01/25 20:16:25;;;;;;;9.90;7.10;;;;;;;-0.31;100.00;101006.13;104512;1257;72704;-63
2023/01/25 20:18:54;;;;;;;9.80;7.80;;;;;;;-0.29;100.00;101003.08;104362;1256;69595;-63
2023/01/25 22:46:03;;;;;;;7.00;4.80;;;;;;;-2.99;100.00;100933.63;102348;1290;601362;-61
2023/01/25 22:48:32;;;;;;;8.30;6.10;;;;;;;-2.35;100.00;100932.39;103837;1269;61692;-62
2023/01/25 22:51:01;;;;;;;10.80;7.40;;;;;;;-2.13;100.00;100927.37;103891;1267;59356;-61
2023/01/25 22:53:29;;;;;;;12.50;9.40;;;;;;;-1.93;100.00;100925.71;103797;1269;71523;-62
2023/01/25 22:56:00;;;;;;;14.00;9.40;;;;;;;-1.76;100.00;100921.73;103860;1268;69886;-61
2023/01/25 22:58:29;;;;;;;13.60;9.00;;;;;;;-1.61;100.00;100914.57;103689;1269;222646;-60
2023/01/25 23:00:57;;;;;;;13.40;10.50;;;;;;;-1.51;100.00;100907.27;103988;1266;59933;-63
2023/01/25 23:03:25;;;;;;;14.90;9.90;;;;;;;-1.45;100.00;100901.24;103918;1267;60171;-63
2023/01/25 23:06:01;;;;;;;18.50;10.50;;;;;;;-1.34;100.00;100902.19;104002;1275;72208;-64
2023/01/25 23:08:30;;;;;;;15.00;10.40;;;;;;;-1.26;100.00;100901.38;103881;1284;68869;-63
2023/01/25 23:11:04;;;;;;;14.40;11.10;;;;;;;-1.20;100.00;100900.85;103834;1278;72148;-65
2023/01/25 23:13:35;;;;;;;13.80;10.70;;;;;;;-1.14;100.00;100900.98;103934;1268;59673;-66
2023/01/25 23:16:05;;;;;;;12.90;10.00;;;;;;;-1.09;100.00;100903.00;103914;1283;59746;-66
2023/01/25 23:18:50;;;;;;;14.00;10.00;;;;;;;-1.05;100.00;100898.95;103960;1267;72872;-68
2023/01/25 23:21:24;;;;;;;15.60;11.10;;;;;;;-0.95;100.00;100904.02;103883;1269;69165;-66
2023/01/25 23:23:53;;;;;;;13.70;9.70;;;;;;;-0.87;100.00;100899.06;104049;1268;72689;-67
2023/01/25 23:26:22;;;;;;;14.50;10.70;;;;;;;-0.79;100.00;100899.59;104056;1264;59705;-68
2023/01/25 23:28:54;;;;;;;17.10;12.30;;;;;;;-0.76;100.00;100896.38;103874;1267;59710;-65
2023/01/25 23:31:23;;;;;;;17.10;11.70;;;;;;;-0.72;100.00;100892.52;103929;1269;73568;-64
2023/01/25 23:33:53;;;;;;;17.50;13.00;;;;;;;-0.67;100.00;100891.96;103957;1264;68701;-66
2023/01/25 23:36:23;;;;;;;18.50;13.40;;;;;;;-0.57;100.00;100892.00;104241;1258;73396;-66
2023/01/25 23:38:52;;;;;;;16.00;11.40;;;;;;;-0.51;100.00;100889.70;104320;1260;59612;-67
2023/01/25 23:41:21;;;;;;;14.00;10.60;;;;;;;-0.48;100.00;100885.13;104267;1260;60356;-65
2023/01/25 23:43:50;;;;;;;16.50;11.10;;;;;;;-0.48;100.00;100875.83;104295;1268;72081;-66
2023/01/25 23:46:18;;;;;;;16.50;11.50;;;;;;;-0.49;100.00;100874.78;104319;1261;68899;-67
2023/01/25 23:48:47;;;;;;;19.00;12.90;;;;;;;-0.46;100.00;100873.13;104346;1260;72614;-66
2023/01/25 23:51:15;;;;;;;17.30;12.50;;;;;;;-0.39;100.00;100873.61;104314;1276;59774;-67
2023/01/25 23:53:46;;;;;;;18.40;12.60;;;;;;;-0.36;100.00;100871.10;104346;1257;60420;-69
2023/01/25 23:56:16;;;;;;;19.70;13.10;;;;;;;-0.33;100.00;100870.14;104232;1262;72259;-66
2023/01/25 23:58:45;;;;;;;17.20;11.60;;;;;;;-0.29;100.00;100871.08;104473;1255;68874;-69
